Terminal Aerodrome Forecast
Issued by NWS

Home | Current Version | Previous Version | Text Only | Print | Product List | Glossary On
Versions: 1 2 3 4 5 6 7 8 9 10 11 12
000
FTUS45 KLKN 270527
TAFWMC
TAF
KWMC 270527Z 2706/2806 24010G20KT P6SM -SHSN SCT025 OVC035
      TEMPO 2708/2712 24010KT 5SM -SN BR BKN030 OVC100
     FM271200 23008KT 5SM -SN BR SCT020 OVC030
     FM271800 25013G23KT 5SM -SN BR FEW020 BKN070
      AMD NOT SKED=

USA.gov is the U.S. government's official web portal to all federal, state and local government web resources and services.